Time;durP1;ratioP1;P1;durP2;ratioP2;P2;SDS_P1;SDS_P2;PMS_P1;PMS_P2;Temp;Humidity;BMP_temperature;BMP_pressure;BME280_temperature;BME280_humidity;BME280_pressure;Samples;Min_cycle;Max_cycle;Signal;HPM_P1;HPM_P2
2022/11/28 03:02:06;;;;;;;20.17;18.33;;;4.40;99.90;;;;;;5219552;23;20243;-81
2022/11/28 03:04:42;;;;;;;20.03;18.23;;;4.40;99.90;;;;;;4916020;29;20267;-81
2022/11/28 03:07:21;;;;;;;19.97;18.37;;;4.40;99.90;;;;;;4908007;29;20208;-81
2022/11/28 03:09:56;;;;;;;20.80;18.73;;;4.40;99.90;;;;;;4915950;29;20224;-81
2022/11/28 03:12:33;;;;;;;19.87;18.07;;;4.40;99.90;;;;;;4907833;29;20594;-82
2022/11/28 03:15:03;;;;;;;19.70;18.00;;;4.40;99.90;;;;;;4905421;29;20211;-82
2022/11/28 03:17:40;;;;;;;19.63;18.00;;;4.30;99.90;;;;;;4892483;29;20204;-81
2022/11/28 03:20:20;;;;;;;20.70;18.90;;;4.30;99.90;;;;;;4897186;29;20201;-81
2022/11/28 03:23:09;;;;;;;21.23;19.33;;;4.30;99.90;;;;;;4900413;29;20201;-81
2022/11/28 03:25:43;;;;;;;20.70;18.87;;;4.30;99.90;;;;;;4895181;29;20228;-81
2022/11/28 03:28:17;;;;;;;19.97;18.27;;;4.30;99.90;;;;;;4901226;29;20204;-81
2022/11/28 03:30:48;;;;;;;20.07;18.37;;;4.30;99.90;;;;;;4909780;29;20709;-81
2022/11/28 03:33:20;;;;;;;19.63;18.07;;;4.30;99.90;;;;;;4907108;29;20201;-81
2022/11/28 03:35:51;;;;;;;19.70;18.10;;;4.40;99.90;;;;;;4902549;29;20197;-81
2022/11/28 03:38:22;;;;;;;18.67;17.07;;;4.40;99.90;;;;;;4901495;29;20223;-81
2022/11/28 03:40:53;;;;;;;19.60;17.97;;;4.40;99.90;;;;;;4898171;29;20598;-82
2022/11/28 03:43:24;;;;;;;19.80;18.20;;;4.40;99.90;;;;;;4895343;29;20209;-81
2022/11/28 03:45:55;;;;;;;18.73;17.03;;;4.40;99.90;;;;;;4907360;29;20212;-81
2022/11/28 03:48:29;;;;;;;19.83;18.20;;;4.40;99.90;;;;;;4902133;29;20203;-81
2022/11/28 03:51:02;;;;;;;18.43;16.90;;;4.40;99.90;;;;;;4900022;29;20236;-82
2022/11/28 03:53:38;;;;;;;18.37;16.80;;;4.40;99.90;;;;;;4898082;29;20669;-83
2022/11/28 03:56:11;;;;;;;19.57;17.87;;;4.30;99.90;;;;;;4903704;29;20215;-85
2022/11/28 03:58:43;;;;;;;20.50;18.67;;;4.30;99.90;;;;;;4901879;29;20221;-83
2022/11/28 04:01:20;;;;;;;19.90;18.37;;;4.40;99.90;;;;;;4895249;29;20232;-83
2022/11/28 04:03:55;;;;;;;19.60;18.00;;;4.30;99.90;;;;;;4892980;29;20208;-83
2022/11/28 04:06:26;;;;;;;19.20;17.67;;;4.40;99.90;;;;;;4903009;29;20211;-83
2022/11/28 04:08:58;;;;;;;19.77;18.17;;;4.40;99.90;;;;;;4895254;29;20204;-82
2022/11/28 04:11:30;;;;;;;19.80;18.20;;;4.40;99.90;;;;;;4894390;29;20727;-83
2022/11/28 04:14:03;;;;;;;20.20;18.60;;;4.40;99.90;;;;;;4892058;29;20575;-84
2022/11/28 04:16:33;;;;;;;19.57;17.97;;;4.40;99.90;;;;;;4895106;29;20271;-83
2022/11/28 04:19:06;;;;;;;19.93;18.13;;;4.40;99.90;;;;;;4903668;29;20218;-84
2022/11/28 04:21:37;;;;;;;19.03;17.43;;;4.40;99.90;;;;;;4903657;29;20251;-85
2022/11/28 04:24:07;;;;;;;19.13;17.60;;;4.40;99.90;;;;;;4897903;29;20216;-85
2022/11/28 04:26:36;;;;;;;20.90;19.20;;;4.40;99.90;;;;;;4901496;29;20212;-85
2022/11/28 04:29:08;;;;;;;20.93;19.23;;;4.40;99.90;;;;;;4907287;29;20230;-84
2022/11/28 04:31:36;;;;;;;20.03;18.10;;;4.40;99.90;;;;;;4900885;29;20228;-84
2022/11/28 04:34:07;;;;;;;19.43;17.83;;;4.40;99.90;;;;;;4898150;29;20220;-84
2022/11/28 04:36:38;;;;;;;19.87;18.17;;;4.40;99.90;;;;;;4905192;29;20214;-83
2022/11/28 04:39:09;;;;;;;19.73;18.13;;;4.40;99.90;;;;;;4907540;29;20196;-84
2022/11/28 04:41:41;;;;;;;19.00;17.30;;;4.40;99.90;;;;;;4902845;29;20641;-84
2022/11/28 04:44:13;;;;;;;19.77;18.10;;;4.40;99.90;;;;;;4899368;29;20571;-84
2022/11/28 04:46:44;;;;;;;18.77;17.27;;;4.40;99.90;;;;;;4914885;29;20575;-86
2022/11/28 04:49:13;;;;;;;21.53;19.63;;;4.40;99.90;;;;;;4895176;29;20222;-86
2022/11/28 04:51:49;;;;;;;20.33;18.47;;;4.40;99.90;;;;;;4901593;29;20229;-86
2022/11/28 04:54:22;;;;;;;20.53;18.90;;;4.40;99.90;;;;;;4904962;29;20698;-84
2022/11/28 04:56:54;;;;;;;20.10;18.27;;;4.40;99.90;;;;;;4905211;29;20283;-84
2022/11/28 04:59:25;;;;;;;20.77;19.07;;;4.40;99.90;;;;;;4898720;29;20287;-83
2022/11/28 05:01:52;;;;;;;21.80;19.97;;;4.40;99.90;;;;;;4900800;29;20324;-84
2022/11/28 05:04:20;;;;;;;20.17;18.57;;;4.40;99.90;;;;;;4907765;29;20201;-84
2022/11/28 05:06:47;;;;;;;20.67;18.87;;;4.40;99.90;;;;;;4910595;29;20196;-84
2022/11/28 05:09:14;;;;;;;20.43;18.73;;;4.40;99.90;;;;;;4909915;29;20208;-84
2022/11/28 05:11:41;;;;;;;20.27;18.67;;;4.40;99.90;;;;;;4904296;29;20228;-84
2022/11/28 05:14:08;;;;;;;19.60;18.10;;;4.40;99.90;;;;;;4890720;29;20640;-85
2022/11/28 05:16:35;;;;;;;19.67;18.17;;;4.40;99.90;;;;;;4905196;29;20207;-84
2022/11/28 05:19:02;;;;;;;20.00;18.47;;;4.30;99.90;;;;;;4898898;29;20640;-84
2022/11/28 05:21:30;;;;;;;20.70;19.10;;;4.30;99.90;;;;;;4907592;29;20235;-84
2022/11/28 05:23:57;;;;;;;20.43;18.83;;;4.30;99.90;;;;;;4906983;29;20208;-84
2022/11/28 05:26:24;;;;;;;20.30;18.70;;;4.30;99.90;;;;;;4902357;29;20214;-86
2022/11/28 05:28:51;;;;;;;20.10;18.60;;;4.20;99.90;;;;;;4909491;29;20637;-82
2022/11/28 05:31:21;;;;;;;21.83;20.03;;;4.30;99.90;;;;;;4901918;29;20743;-83
2022/11/28 05:33:47;;;;;;;21.47;19.67;;;4.30;99.90;;;;;;4907634;29;20200;-82
2022/11/28 05:36:15;;;;;;;20.67;18.97;;;4.30;99.90;;;;;;4901027;29;20569;-81
2022/11/28 05:38:44;;;;;;;21.60;19.90;;;4.30;99.90;;;;;;4905779;29;20212;-83
2022/11/28 05:41:18;;;;;;;21.23;19.50;;;4.30;99.90;;;;;;4907338;29;20225;-84
2022/11/28 05:43:45;;;;;;;20.33;18.70;;;4.30;99.90;;;;;;4902780;29;20701;-84
2022/11/28 05:46:12;;;;;;;18.30;16.80;;;4.30;99.90;;;;;;4901726;29;20552;-83
2022/11/28 05:48:39;;;;;;;20.37;18.70;;;4.30;99.90;;;;;;4898944;29;20243;-84
2022/11/28 05:51:07;;;;;;;20.67;19.03;;;4.30;99.90;;;;;;4906388;29;20814;-83
2022/11/28 05:53:34;;;;;;;20.93;19.33;;;4.30;99.90;;;;;;4902838;29;20333;-82
2022/11/28 05:56:08;;;;;;;20.13;18.70;;;4.30;99.90;;;;;;4899039;29;20205;-83
2022/11/28 05:58:35;;;;;;;20.93;19.17;;;4.30;99.90;;;;;;4911697;29;20196;-83
2022/11/28 06:01:09;;;;;;;21.20;19.60;;;4.30;99.90;;;;;;4903713;29;20260;-83
2022/11/28 06:03:36;;;;;;;21.77;19.93;;;4.30;99.90;;;;;;4904996;29;20212;-82
2022/11/28 06:06:03;;;;;;;20.67;19.07;;;4.30;99.90;;;;;;4905810;29;20212;-82
2022/11/28 06:08:30;;;;;;;20.83;19.13;;;4.20;99.90;;;;;;4902041;29;20201;-82
2022/11/28 06:10:57;;;;;;;20.77;19.17;;;4.20;99.90;;;;;;4901002;29;20636;-83
2022/11/28 06:13:26;;;;;;;20.70;18.93;;;4.20;99.90;;;;;;4903118;29;20203;-82
2022/11/28 06:15:53;;;;;;;20.60;18.80;;;4.10;99.90;;;;;;4908666;29;20264;-83
2022/11/28 06:18:20;;;;;;;19.80;18.20;;;4.10;99.90;;;;;;4901477;29;20280;-83
2022/11/28 06:20:47;;;;;;;19.27;17.77;;;4.10;99.90;;;;;;4909839;29;20592;-82
2022/11/28 06:23:14;;;;;;;21.23;19.53;;;4.10;99.90;;;;;;4910599;29;20208;-82
2022/11/28 06:25:41;;;;;;;19.90;18.30;;;4.10;99.90;;;;;;4903698;29;20206;-84
2022/11/28 06:28:07;;;;;;;20.40;18.70;;;4.20;99.90;;;;;;4898576;29;20204;-82
2022/11/28 06:30:36;;;;;;;20.60;18.80;;;4.20;99.90;;;;;;4903330;29;20226;-82
2022/11/28 06:33:02;;;;;;;20.77;18.87;;;4.20;99.90;;;;;;4907285;29;20263;-82
2022/11/28 06:35:29;;;;;;;20.07;18.50;;;4.10;99.90;;;;;;4900263;29;20203;-82
2022/11/28 06:37:56;;;;;;;21.00;19.20;;;4.10;99.90;;;;;;4901000;29;20205;-83
2022/11/28 06:40:23;;;;;;;20.70;19.00;;;4.10;99.90;;;;;;4906860;29;20564;-84
2022/11/28 06:42:50;;;;;;;20.70;19.00;;;4.10;99.90;;;;;;4902150;29;20196;-82
2022/11/28 06:45:17;;;;;;;20.57;18.87;;;4.10;99.90;;;;;;4900080;29;20755;-83
2022/11/28 06:47:45;;;;;;;20.53;18.87;;;4.10;99.90;;;;;;4899541;29;20298;-83
2022/11/28 06:50:12;;;;;;;20.93;19.17;;;4.10;99.90;;;;;;4904297;29;20208;-82
2022/11/28 06:52:38;;;;;;;20.77;18.87;;;4.10;99.90;;;;;;4901958;29;20239;-82
2022/11/28 06:55:06;;;;;;;21.37;19.67;;;4.10;99.90;;;;;;4898899;29;20214;-82
2022/11/28 06:57:33;;;;;;;20.80;19.10;;;4.10;99.90;;;;;;4905491;29;20200;-83
2022/11/28 07:00:00;;;;;;;20.77;19.00;;;4.10;99.90;;;;;;4904754;29;20682;-84
2022/11/28 07:02:26;;;;;;;22.93;20.97;;;4.10;99.90;;;;;;4899978;29;20251;-82
2022/11/28 07:04:55;;;;;;;22.30;20.40;;;4.20;99.90;;;;;;4905901;29;20196;-83
2022/11/28 07:07:21;;;;;;;20.70;18.97;;;4.20;99.90;;;;;;4907768;29;20676;-82
2022/11/28 07:09:48;;;;;;;20.37;18.57;;;4.20;99.90;;;;;;4902961;29;20207;-83
2022/11/28 07:12:15;;;;;;;20.63;18.90;;;4.30;99.90;;;;;;4901016;29;20236;-82
2022/11/28 07:14:42;;;;;;;21.57;19.77;;;4.30;99.90;;;;;;4902401;29;20212;-82
2022/11/28 07:17:09;;;;;;;21.43;19.37;;;4.30;99.90;;;;;;4904460;29;20197;-82
2022/11/28 07:19:36;;;;;;;20.87;18.97;;;4.20;99.90;;;;;;4900246;29;20240;-83
2022/11/28 07:22:04;;;;;;;21.30;19.33;;;4.20;99.90;;;;;;4903347;29;20590;-82
2022/11/28 07:24:31;;;;;;;20.33;18.50;;;4.20;99.90;;;;;;4907073;29;20265;-83
2022/11/28 07:26:58;;;;;;;20.10;18.40;;;4.20;99.90;;;;;;4903774;29;20211;-83
2022/11/28 07:29:29;;;;;;;20.60;18.70;;;4.30;99.90;;;;;;4897253;29;20211;-82
2022/11/28 07:31:56;;;;;;;20.23;18.67;;;4.30;99.90;;;;;;4897540;29;20229;-83
2022/11/28 07:34:23;;;;;;;20.50;18.80;;;4.30;99.90;;;;;;4904066;29;20622;-84
2022/11/28 07:36:50;;;;;;;19.67;18.07;;;4.30;99.90;;;;;;4901163;29;20201;-81
2022/11/28 07:39:18;;;;;;;18.80;17.17;;;4.30;99.90;;;;;;4898774;29;20299;-83
2022/11/28 07:41:45;;;;;;;19.17;17.67;;;4.40;99.90;;;;;;4901405;29;20619;-82
2022/11/28 07:44:16;;;;;;;18.87;17.07;;;4.50;99.90;;;;;;4904761;29;20293;-83
2022/11/28 07:46:44;;;;;;;19.53;17.93;;;4.50;99.90;;;;;;4900131;29;20664;-83
2022/11/28 07:49:11;;;;;;;19.47;17.87;;;4.60;99.90;;;;;;4896934;29;20633;-83
2022/11/28 07:51:38;;;;;;;17.93;16.43;;;4.60;99.90;;;;;;4903248;29;20236;-83
2022/11/28 07:54:06;;;;;;;19.63;17.87;;;4.70;99.90;;;;;;4907937;29;20235;-81
2022/11/28 07:56:36;;;;;;;18.97;17.37;;;4.80;99.90;;;;;;4898925;29;20654;-82
2022/11/28 07:59:04;;;;;;;19.33;17.73;;;4.80;99.90;;;;;;4899082;29;20207;-81
2022/11/28 08:01:34;;;;;;;18.27;16.80;;;4.90;99.90;;;;;;4894176;29;20240;-82
2022/11/28 08:04:03;;;;;;;18.87;17.33;;;4.90;99.90;;;;;;4904938;29;20294;-81
2022/11/28 08:06:31;;;;;;;19.10;17.50;;;5.00;99.90;;;;;;4892535;29;20805;-82
2022/11/28 08:09:00;;;;;;;19.60;18.00;;;5.00;99.90;;;;;;4898187;29;20209;-82
2022/11/28 08:11:29;;;;;;;19.13;17.43;;;5.10;99.90;;;;;;4896579;29;20212;-82
2022/11/28 08:13:57;;;;;;;18.93;17.33;;;5.20;99.90;;;;;;4901871;29;20572;-82
2022/11/28 08:16:26;;;;;;;17.60;16.10;;;5.20;99.90;;;;;;4898183;29;20204;-82
2022/11/28 08:18:54;;;;;;;17.37;15.97;;;5.20;99.90;;;;;;4897867;29;20215;-82
2022/11/28 08:21:23;;;;;;;17.63;16.33;;;5.30;99.90;;;;;;4902177;29;20709;-82
2022/11/28 08:23:51;;;;;;;19.27;17.67;;;5.30;99.90;;;;;;4903427;29;20201;-82
2022/11/28 08:26:19;;;;;;;17.33;15.93;;;5.30;99.90;;;;;;4900190;29;20349;-82
2022/11/28 08:28:46;;;;;;;18.47;16.77;;;5.30;99.90;;;;;;4899140;29;20205;-82
2022/11/28 08:31:17;;;;;;;18.53;16.97;;;5.30;99.90;;;;;;4902382;29;20217;-82
2022/11/28 08:33:45;;;;;;;17.90;16.33;;;5.40;99.90;;;;;;4904001;29;20280;-82
2022/11/28 08:36:14;;;;;;;17.70;16.10;;;5.40;99.90;;;;;;4901791;29;20244;-82
2022/11/28 08:38:41;;;;;;;18.07;16.50;;;5.50;99.90;;;;;;4904514;29;20301;-82
2022/11/28 08:41:11;;;;;;;17.93;16.43;;;5.50;99.90;;;;;;4909482;29;20592;-83
2022/11/28 08:43:38;;;;;;;19.17;17.47;;;5.50;99.90;;;;;;4903462;29;20305;-83
2022/11/28 08:46:06;;;;;;;17.90;16.40;;;5.60;99.90;;;;;;4901066;29;20259;-82
2022/11/28 08:48:36;;;;;;;18.33;16.73;;;5.70;99.90;;;;;;4905459;29;20206;-82
2022/11/28 08:51:03;;;;;;;18.03;16.43;;;5.80;99.90;;;;;;4904659;29;20226;-81
2022/11/28 08:53:30;;;;;;;17.90;16.37;;;5.90;99.90;;;;;;4900265;29;20205;-83
2022/11/28 08:55:57;;;;;;;17.80;16.00;;;6.00;99.90;;;;;;4905508;29;20666;-82
2022/11/28 08:58:24;;;;;;;16.83;15.07;;;5.90;99.90;;;;;;4905972;29;20209;-82
2022/11/28 09:00:51;;;;;;;16.47;14.87;;;6.00;99.90;;;;;;4903768;29;20229;-82
2022/11/28 09:03:20;;;;;;;16.00;14.60;;;6.00;99.90;;;;;;4898170;29;20210;-82
2022/11/28 09:05:48;;;;;;;16.07;14.67;;;6.10;99.90;;;;;;4899313;29;20214;-82
2022/11/28 09:08:16;;;;;;;12.33;11.23;;;6.20;99.90;;;;;;4904857;29;20203;-82
2022/11/28 09:10:44;;;;;;;10.77;8.83;;;6.20;99.90;;;;;;4905449;29;20220;-82
2022/11/28 09:13:17;;;;;;;16.03;14.63;;;6.30;99.90;;;;;;4906665;29;20312;-80
2022/11/28 09:15:45;;;;;;;8.07;6.60;;;6.40;99.90;;;;;;4908598;29;20209;-82
2022/11/28 09:18:14;;;;;;;8.40;7.53;;;6.50;99.90;;;;;;4902307;29;20210;-82
2022/11/28 09:20:41;;;;;;;8.03;7.23;;;6.60;99.90;;;;;;4899607;29;20207;-82
2022/11/28 09:23:10;;;;;;;15.00;13.87;;;6.60;99.90;;;;;;4899389;29;20204;-82
2022/11/28 09:25:37;;;;;;;12.90;11.77;;;6.60;99.90;;;;;;4909141;29;20254;-82
2022/11/28 09:28:05;;;;;;;7.77;6.87;;;6.60;99.90;;;;;;4900182;29;20202;-83
2022/11/28 09:30:32;;;;;;;7.77;6.57;;;6.70;99.90;;;;;;4909382;29;20670;-83
2022/11/28 09:32:59;;;;;;;8.77;6.57;;;6.70;99.90;;;;;;4901702;29;20220;-82
2022/11/28 09:35:26;;;;;;;16.20;15.00;;;6.70;99.90;;;;;;4909261;29;20211;-82
2022/11/28 09:37:53;;;;;;;15.83;14.60;;;6.70;99.90;;;;;;4911026;29;20203;-82
2022/11/28 09:40:29;;;;;;;15.80;14.60;;;6.80;99.90;;;;;;4910383;29;20232;-82
2022/11/28 09:42:58;;;;;;;12.57;11.47;;;6.80;99.90;;;;;;4909628;29;20210;-82
2022/11/28 09:45:25;;;;;;;11.87;10.77;;;6.80;99.90;;;;;;4910276;29;20212;-82
2022/11/28 09:47:56;;;;;;;8.93;7.77;;;6.80;99.90;;;;;;4904621;29;20203;-82
2022/11/28 09:50:26;;;;;;;10.67;8.07;;;6.80;99.90;;;;;;4907665;29;20201;-82
2022/11/28 09:52:59;;;;;;;10.80;8.67;;;6.80;99.90;;;;;;4904007;29;20726;-83
2022/11/28 09:55:34;;;;;;;16.07;14.63;;;6.80;99.90;;;;;;4899621;29;20207;-82
2022/11/28 09:58:06;;;;;;;16.90;15.50;;;6.80;99.90;;;;;;4895081;29;20222;-82
2022/11/28 10:00:37;;;;;;;15.93;14.63;;;6.80;99.90;;;;;;4896881;29;20200;-82
2022/11/28 10:03:30;;;;;;;11.10;10.13;;;6.90;99.90;;;;;;4905753;29;20591;-82
2022/11/28 10:06:11;;;;;;;15.77;14.43;;;6.90;99.90;;;;;;4902061;29;20194;-82
2022/11/28 10:08:47;;;;;;;14.83;13.53;;;7.00;99.90;;;;;;4892463;29;20219;-82
2022/11/28 10:11:30;;;;;;;16.83;15.50;;;7.10;99.90;;;;;;4896203;29;20229;-82
2022/11/28 10:14:06;;;;;;;15.07;13.87;;;7.10;99.90;;;;;;4906871;29;20203;-82
2022/11/28 10:16:44;;;;;;;11.87;10.77;;;7.20;99.90;;;;;;4895757;29;20282;-82
2022/11/28 10:19:16;;;;;;;11.30;8.03;;;7.30;99.90;;;;;;4899663;29;20272;-82
2022/11/28 10:21:47;;;;;;;10.23;9.23;;;7.30;99.90;;;;;;4903977;29;20224;-82
2022/11/28 10:24:18;;;;;;;7.97;6.70;;;7.40;99.90;;;;;;4897919;29;20585;-82
2022/11/28 10:26:48;;;;;;;17.67;16.27;;;7.50;99.90;;;;;;4900491;29;20204;-83
2022/11/28 10:29:25;;;;;;;17.97;16.77;;;7.60;99.90;;;;;;4907134;29;20588;-83
2022/11/28 10:31:55;;;;;;;16.70;15.30;;;7.60;99.90;;;;;;4904620;29;20230;-83
2022/11/28 10:34:28;;;;;;;8.70;7.57;;;7.70;99.90;;;;;;4897921;29;20207;-82
2022/11/28 10:37:00;;;;;;;15.90;14.70;;;7.70;99.90;;;;;;4898732;29;20687;-83
2022/11/28 10:39:28;;;;;;;16.20;15.00;;;7.80;99.90;;;;;;4895333;29;20201;-82
2022/11/28 10:42:12;;;;;;;14.00;13.00;;;7.90;99.90;;;;;;4899413;29;20232;-82
2022/11/28 10:44:53;;;;;;;16.93;15.53;;;8.00;99.90;;;;;;4900295;29;20201;-82
2022/11/28 10:47:31;;;;;;;18.03;16.63;;;8.20;99.90;;;;;;4907196;29;20214;-82
2022/11/28 10:50:04;;;;;;;15.77;14.47;;;8.20;99.90;;;;;;4902365;29;20192;-82
2022/11/28 10:52:39;;;;;;;16.67;15.37;;;8.30;99.90;;;;;;4899458;29;20590;-82
2022/11/28 10:55:21;;;;;;;14.60;13.50;;;8.40;99.90;;;;;;4891840;29;20213;-82
2022/11/28 10:58:01;;;;;;;15.83;14.53;;;8.40;99.90;;;;;;4900869;29;20212;-81
2022/11/28 11:00:28;;;;;;;12.50;11.50;;;8.40;99.90;;;;;;4904138;29;20208;-81
2022/11/28 11:02:57;;;;;;;15.03;13.73;;;8.40;99.90;;;;;;4896515;29;20228;-81
2022/11/28 11:05:26;;;;;;;15.57;14.37;;;8.40;99.90;;;;;;4903897;29;20193;-81
2022/11/28 11:07:55;;;;;;;11.23;10.13;;;8.40;99.90;;;;;;4906053;29;20836;-82
2022/11/28 11:10:26;;;;;;;13.43;12.37;;;8.50;99.90;;;;;;4905176;29;20207;-81
2022/11/28 11:12:54;;;;;;;9.23;8.33;;;8.50;99.90;;;;;;4907402;29;20189;-81
2022/11/28 11:15:29;;;;;;;12.63;11.40;;;8.40;99.90;;;;;;4907442;29;20215;-81
2022/11/28 11:17:56;;;;;;;13.07;11.97;;;8.40;99.90;;;;;;4902188;29;20234;-81
2022/11/28 11:20:33;;;;;;;13.13;12.00;;;8.40;99.90;;;;;;4898671;29;20212;-81
2022/11/28 11:23:02;;;;;;;13.17;12.07;;;8.50;99.90;;;;;;4899466;29;20251;-81
2022/11/28 11:25:31;;;;;;;10.20;7.80;;;8.50;99.90;;;;;;4902294;29;20246;-81
2022/11/28 11:28:02;;;;;;;10.80;7.63;;;8.60;99.90;;;;;;4903016;29;20214;-81
2022/11/28 11:30:31;;;;;;;11.23;7.57;;;8.60;99.90;;;;;;4889246;29;20196;-81
2022/11/28 11:33:00;;;;;;;12.87;7.97;;;8.70;99.90;;;;;;4894643;29;20201;-83
2022/11/28 11:35:29;;;;;;;12.70;11.50;;;8.70;99.90;;;;;;4905401;29;20607;-82
2022/11/28 11:38:16;;;;;;;9.37;8.47;;;8.80;99.90;;;;;;4898089;29;20717;-82
2022/11/28 11:40:43;;;;;;;13.70;12.60;;;9.00;99.90;;;;;;4896642;29;20213;-83
2022/11/28 11:43:25;;;;;;;12.10;9.83;;;9.00;99.90;;;;;;4903231;29;20219;-82
2022/11/28 11:46:06;;;;;;;10.63;9.40;;;9.10;99.90;;;;;;4900092;29;20264;-82
2022/11/28 11:48:39;;;;;;;11.53;9.13;;;9.10;99.90;;;;;;4898564;29;20207;-83
2022/11/28 11:51:08;;;;;;;12.17;9.57;;;9.00;99.90;;;;;;4908912;29;20279;-82
2022/11/28 11:53:35;;;;;;;9.60;8.27;;;9.00;99.90;;;;;;4905113;29;20703;-82
2022/11/28 11:56:04;;;;;;;10.60;8.50;;;9.00;99.90;;;;;;4901349;29;20209;-82
2022/11/28 11:58:40;;;;;;;10.30;8.17;;;8.90;99.90;;;;;;4911555;29;20201;-82
2022/11/28 12:01:08;;;;;;;8.53;7.63;;;8.90;99.90;;;;;;4901593;29;20323;-82
2022/11/28 12:03:40;;;;;;;8.20;7.40;;;9.00;99.90;;;;;;4900204;29;20213;-82
2022/11/28 12:06:14;;;;;;;8.83;7.60;;;9.00;99.90;;;;;;4900027;29;20199;-81
2022/11/28 12:08:46;;;;;;;10.47;8.27;;;9.10;99.90;;;;;;4894206;29;20588;-82
2022/11/28 12:11:17;;;;;;;12.00;9.63;;;9.10;99.90;;;;;;4902603;29;20227;-84
2022/11/28 12:13:45;;;;;;;12.97;11.80;;;9.20;99.90;;;;;;4906542;29;20672;-81
2022/11/28 12:16:31;;;;;;;13.10;11.80;;;9.20;99.90;;;;;;4898095;29;20257;-84
2022/11/28 12:19:10;;;;;;;11.60;10.40;;;9.20;99.90;;;;;;4896441;29;20197;-84
2022/11/28 12:21:45;;;;;;;13.00;11.83;;;9.30;99.90;;;;;;4897741;29;20260;-83
2022/11/28 12:24:15;;;;;;;13.73;12.53;;;9.30;99.90;;;;;;4905621;29;20200;-85
2022/11/28 12:26:47;;;;;;;15.83;14.07;;;9.30;99.90;;;;;;4898772;29;20210;-84
2022/11/28 12:29:30;;;;;;;16.23;14.63;;;9.30;99.90;;;;;;4905929;29;20184;-84
2022/11/28 12:32:16;;;;;;;14.83;11.17;;;9.30;99.90;;;;;;4902467;29;20709;-84
2022/11/28 12:34:57;;;;;;;12.50;10.77;;;9.30;99.90;;;;;;4900102;29;20208;-84
2022/11/28 12:37:36;;;;;;;11.87;10.73;;;9.30;99.90;;;;;;4909477;29;20215;-84
2022/11/28 12:40:13;;;;;;;13.80;11.80;;;9.40;99.90;;;;;;4910698;29;20212;-84
2022/11/28 12:42:56;;;;;;;16.17;14.77;;;9.40;99.90;;;;;;4896106;29;20219;-84
2022/11/28 12:45:41;;;;;;;16.73;15.33;;;9.40;99.90;;;;;;4899836;29;20208;-84
2022/11/28 12:48:20;;;;;;;15.90;14.30;;;9.40;99.90;;;;;;4905043;29;20650;-85
2022/11/28 12:50:52;;;;;;;18.00;16.50;;;9.50;99.90;;;;;;4902263;29;20269;-84
2022/11/28 12:53:45;;;;;;;15.63;14.07;;;9.50;99.90;;;;;;4898349;29;20208;-83
2022/11/28 12:56:28;;;;;;;16.43;14.93;;;9.40;99.90;;;;;;4894170;29;20213;-84
2022/11/28 12:59:03;;;;;;;12.60;11.13;;;9.40;99.90;;;;;;4896491;29;20726;-84
2022/11/28 13:01:43;;;;;;;16.57;15.07;;;9.50;99.90;;;;;;4894325;29;20247;-84
2022/11/28 13:04:27;;;;;;;13.20;11.67;;;9.50;99.90;;;;;;4900186;29;20221;-84
2022/11/28 13:07:01;;;;;;;13.90;12.47;;;9.50;99.90;;;;;;4900855;29;20205;-84
2022/11/28 13:09:32;;;;;;;13.70;12.17;;;9.50;99.90;;;;;;4894981;29;20196;-84
2022/11/28 13:12:14;;;;;;;12.47;10.83;;;9.50;99.90;;;;;;4900911;29;20231;-84
2022/11/28 13:14:48;;;;;;;12.30;10.80;;;9.60;99.90;;;;;;4904221;29;20204;-84
2022/11/28 13:17:27;;;;;;;13.00;10.63;;;9.60;99.90;;;;;;4895646;29;20211;-84
2022/11/28 13:20:01;;;;;;;14.43;12.93;;;9.60;99.90;;;;;;4906014;29;20207;-84
2022/11/28 13:22:34;;;;;;;11.87;10.57;;;9.50;99.90;;;;;;4889066;29;20271;-84
2022/11/28 13:25:08;;;;;;;11.97;10.87;;;9.60;99.90;;;;;;4905351;29;20212;-84
2022/11/28 13:27:44;;;;;;;12.33;11.03;;;9.70;99.90;;;;;;4900112;29;20196;-84
2022/11/28 13:30:19;;;;;;;19.37;17.77;;;9.70;99.90;;;;;;4900710;29;20228;-84
2022/11/28 13:32:52;;;;;;;19.37;17.67;;;9.70;99.90;;;;;;4902918;29;20650;-84
2022/11/28 13:35:20;;;;;;;19.77;18.13;;;9.70;99.90;;;;;;4906401;29;20208;-84
2022/11/28 13:37:54;;;;;;;19.07;17.57;;;9.70;99.90;;;;;;4899959;29;20697;-84
2022/11/28 13:40:29;;;;;;;18.27;16.77;;;9.70;99.90;;;;;;4900923;29;20208;-84
2022/11/28 13:43:04;;;;;;;18.47;16.87;;;9.80;99.90;;;;;;4900124;29;20211;-84
2022/11/28 13:45:33;;;;;;;18.50;16.80;;;9.80;99.90;;;;;;4880233;29;20209;-84
2022/11/28 13:48:50;;;;;;;18.50;16.77;;;9.70;99.90;;;;;;4902792;29;20208;-84
2022/11/28 13:51:19;;;;;;;19.30;17.77;;;9.70;99.90;;;;;;4904293;29;20234;-84
2022/11/28 13:53:48;;;;;;;19.07;17.37;;;9.70;99.90;;;;;;4901037;29;20279;-84
2022/11/28 13:56:24;;;;;;;18.97;17.33;;;9.60;99.90;;;;;;4897062;29;20209;-81
2022/11/28 13:58:55;;;;;;;19.83;18.13;;;9.60;99.90;;;;;;4892255;29;20222;-82
2022/11/28 14:01:24;;;;;;;19.60;17.93;;;9.60;99.90;;;;;;4850854;29;1158999;-81
2022/11/28 14:04:05;;;;;;;19.57;17.87;;;9.60;99.90;;;;;;4901953;29;20219;-82
2022/11/28 14:06:43;;;;;;;19.13;17.33;;;9.60;99.90;;;;;;4902056;29;20198;-81
2022/11/28 14:09:30;;;;;;;17.30;15.90;;;9.60;99.90;;;;;;4903644;29;20208;-81
2022/11/28 14:12:11;;;;;;;18.33;16.73;;;9.60;99.90;;;;;;4906598;29;20220;-82
2022/11/28 14:14:55;;;;;;;18.67;17.13;;;9.50;99.90;;;;;;4897015;29;20205;-81
2022/11/28 14:17:41;;;;;;;18.60;17.00;;;9.40;99.90;;;;;;4912592;29;20311;-82
2022/11/28 14:20:24;;;;;;;18.33;16.73;;;9.40;99.90;;;;;;4900468;29;20208;-82
2022/11/28 14:23:02;;;;;;;18.83;17.27;;;9.30;99.90;;;;;;4900196;29;20229;-81
2022/11/28 14:25:32;;;;;;;18.63;17.03;;;9.30;99.90;;;;;;4893126;29;20200;-81
2022/11/28 14:28:02;;;;;;;19.03;17.33;;;9.20;99.90;;;;;;4900802;29;20227;-81
2022/11/28 14:30:33;;;;;;;17.60;15.93;;;9.20;99.90;;;;;;4896418;29;20192;-81
2022/11/28 14:33:04;;;;;;;18.93;17.23;;;9.20;99.90;;;;;;4901472;29;20565;-81
2022/11/28 14:36:04;;;;;;;18.70;17.10;;;9.20;99.90;;;;;;4899442;29;20291;-81
2022/11/28 14:38:45;;;;;;;18.17;16.57;;;9.10;99.90;;;;;;4900451;29;20201;-81
2022/11/28 14:41:14;;;;;;;18.73;17.03;;;9.10;99.90;;;;;;4907334;29;20236;-81
2022/11/28 14:43:45;;;;;;;18.77;17.07;;;9.00;99.90;;;;;;4897742;29;20224;-80
2022/11/28 14:46:30;;;;;;;18.07;16.57;;;9.00;99.90;;;;;;4909044;29;20208;-82
2022/11/28 14:49:22;;;;;;;17.90;16.43;;;8.90;99.90;;;;;;4909460;29;20299;-81
2022/11/28 14:52:29;;;;;;;14.60;13.30;;;8.80;99.90;;;;;;4876475;29;20327;-83
2022/11/28 14:54:59;;;;;;;17.50;16.07;;;8.70;99.90;;;;;;4907697;29;20208;-83
2022/11/28 14:57:29;;;;;;;19.43;17.83;;;8.70;99.90;;;;;;4908802;29;20204;-82
2022/11/28 14:59:59;;;;;;;10.90;9.17;;;8.70;99.90;;;;;;4901342;29;20668;-82
2022/11/28 15:02:55;;;;;;;12.63;11.53;;;8.60;99.90;;;;;;4916797;29;20219;-83
2022/11/28 15:05:44;;;;;;;10.70;9.07;;;8.60;99.90;;;;;;4906128;29;20287;-81
2022/11/28 15:08:57;;;;;;;13.30;9.33;;;8.60;99.90;;;;;;4898380;29;20201;-81
2022/11/28 15:11:39;;;;;;;17.73;16.23;;;8.50;99.90;;;;;;4890987;29;20227;-82
2022/11/28 15:14:17;;;;;;;16.73;15.43;;;8.50;99.90;;;;;;4908475;29;20212;-81
2022/11/28 15:16:46;;;;;;;19.07;17.40;;;8.40;99.90;;;;;;4897353;29;20201;-83
2022/11/28 15:19:20;;;;;;;18.97;17.53;;;8.40;99.90;;;;;;4908935;29;20203;-82
2022/11/28 15:21:49;;;;;;;19.57;17.77;;;8.30;99.90;;;;;;4897273;29;20217;-81
2022/11/28 15:24:23;;;;;;;21.50;19.40;;;8.30;99.90;;;;;;4911405;29;20223;-79
2022/11/28 15:26:52;;;;;;;19.70;18.00;;;8.20;99.90;;;;;;4886823;29;20674;-79
2022/11/28 15:29:21;;;;;;;18.77;17.17;;;8.20;99.90;;;;;;4887373;29;20583;-81
2022/11/28 15:31:50;;;;;;;19.37;17.67;;;8.10;99.90;;;;;;4882004;29;20277;-80
2022/11/28 15:34:25;;;;;;;19.27;17.57;;;8.10;99.90;;;;;;4883988;29;20259;-80
2022/11/28 15:36:54;;;;;;;22.10;20.10;;;8.10;99.90;;;;;;4882092;29;20216;-80
2022/11/28 15:39:27;;;;;;;20.60;18.97;;;8.00;99.90;;;;;;4881549;29;20211;-79
2022/11/28 15:41:56;;;;;;;22.40;20.47;;;8.00;99.90;;;;;;4881327;29;20235;-81
2022/11/28 15:44:24;;;;;;;22.00;20.07;;;7.90;99.90;;;;;;4885823;29;20255;-80
2022/11/28 15:46:51;;;;;;;21.90;20.20;;;7.90;99.90;;;;;;4885181;29;20224;-79
2022/11/28 15:49:28;;;;;;;21.77;19.63;;;7.80;99.90;;;;;;4886617;29;20228;-81
2022/11/28 15:51:58;;;;;;;20.83;19.00;;;7.80;99.90;;;;;;4882422;29;20224;-81
2022/11/28 15:54:34;;;;;;;21.50;19.60;;;7.80;99.90;;;;;;4883990;29;20223;-80
2022/11/28 15:57:03;;;;;;;21.43;19.63;;;7.80;99.90;;;;;;4881807;29;20596;-80
2022/11/28 15:59:30;;;;;;;21.27;19.43;;;7.70;99.90;;;;;;4882281;29;20211;-80
2022/11/28 16:02:00;;;;;;;21.03;19.07;;;7.70;99.90;;;;;;4880100;29;20702;-81
2022/11/28 16:04:29;;;;;;;21.00;19.27;;;7.70;99.90;;;;;;4885779;29;20234;-81